Time;durP1;ratioP1;P1;durP2;ratioP2;P2;SDS_P1;SDS_P2;PMS_P1;PMS_P2;Temp;Humidity;BMP_temperature;BMP_pressure;BME280_temperature;BME280_humidity;BME280_pressure;Samples;Min_cycle;Max_cycle;Signal;HPM_P1;HPM_P2
2022/08/01 00:01:54;;;;;;;0.45;0.43;;;15.00;99.90;;;;;;5053408;28;20211;-81
2022/08/01 00:04:19;;;;;;;0.40;0.40;;;15.00;99.90;;;;;;5054423;28;20288;-80
2022/08/01 00:06:45;;;;;;;0.47;0.47;;;15.00;99.90;;;;;;5053630;28;20271;-80
2022/08/01 00:09:11;;;;;;;0.52;0.52;;;15.00;99.90;;;;;;5053052;28;20267;-80
2022/08/01 00:11:36;;;;;;;0.35;0.35;;;15.00;99.90;;;;;;5053244;28;20240;-80
2022/08/01 00:14:02;;;;;;;0.55;0.55;;;15.00;99.90;;;;;;5054796;28;20215;-79
2022/08/01 00:16:28;;;;;;;0.40;0.40;;;15.00;99.90;;;;;;5049777;28;20190;-80
2022/08/01 00:18:54;;;;;;;0.40;0.40;;;15.00;99.90;;;;;;5049428;28;20202;-80
2022/08/01 00:21:21;;;;;;;0.30;0.30;;;15.00;99.90;;;;;;5033986;28;20207;-80
2022/08/01 00:23:46;;;;;;;0.60;0.60;;;15.00;99.90;;;;;;5049973;28;20202;-82
2022/08/01 00:26:13;;;;;;;0.30;0.30;;;15.00;99.90;;;;;;5053229;28;20218;-80
2022/08/01 00:28:39;;;;;;;0.47;0.43;;;15.00;99.90;;;;;;5053437;28;20227;-81
2022/08/01 00:31:04;;;;;;;0.35;0.35;;;15.00;99.90;;;;;;5052734;28;20537;-80
2022/08/01 00:33:30;;;;;;;0.40;0.40;;;15.00;99.90;;;;;;5052719;28;20224;-80
2022/08/01 00:35:56;;;;;;;0.40;0.40;;;15.00;99.90;;;;;;5038133;28;20190;-80
2022/08/01 00:38:21;;;;;;;0.60;0.60;;;15.00;99.90;;;;;;5034123;28;20281;-80
2022/08/01 00:40:48;;;;;;;0.40;0.40;;;15.00;99.90;;;;;;5033438;28;20198;-80
2022/08/01 00:43:14;;;;;;;0.40;0.40;;;15.00;99.90;;;;;;5053686;28;20267;-79
2022/08/01 00:45:40;;;;;;;6.22;0.93;;;15.10;99.90;;;;;;5052547;28;20204;-81
2022/08/01 00:48:05;;;;;;;0.98;0.63;;;15.00;99.90;;;;;;5053066;28;20660;-81
2022/08/01 00:50:31;;;;;;;0.50;0.50;;;15.00;99.90;;;;;;5053739;28;20664;-81
2022/08/01 00:52:59;;;;;;;0.30;0.30;;;15.00;99.90;;;;;;5053843;28;20200;-81
2022/08/01 00:55:25;;;;;;;0.40;0.40;;;15.00;99.90;;;;;;5052198;28;20225;-80
2022/08/01 00:57:51;;;;;;;0.40;0.40;;;15.00;99.90;;;;;;5052794;28;20223;-80
2022/08/01 01:00:17;;;;;;;0.47;0.47;;;15.00;99.90;;;;;;5053726;28;20288;-81
2022/08/01 01:02:43;;;;;;;0.55;0.55;;;15.00;99.90;;;;;;5052430;28;20547;-80
2022/08/01 01:05:09;;;;;;;0.57;0.57;;;15.00;99.90;;;;;;5051544;28;20202;-81
2022/08/01 01:07:55;;;;;;;0.60;0.60;;;15.00;99.90;;;;;;5051867;28;20209;-81
2022/08/01 01:10:47;;;;;;;0.47;0.47;;;15.00;99.90;;;;;;5052393;28;20198;-81
2022/08/01 01:13:23;;;;;;;0.40;0.40;;;15.00;99.90;;;;;;5053631;28;20276;-81
2022/08/01 01:15:58;;;;;;;0.38;0.38;;;15.00;99.90;;;;;;5052179;28;20212;-81
2022/08/01 01:18:30;;;;;;;0.68;0.60;;;14.90;99.90;;;;;;5053069;28;20235;-80
2022/08/01 01:21:18;;;;;;;0.40;0.40;;;14.90;99.90;;;;;;5052918;28;20266;-79
2022/08/01 01:23:57;;;;;;;0.50;0.50;;;14.90;99.90;;;;;;5051873;28;20656;-81
2022/08/01 01:26:47;;;;;;;0.50;0.50;;;14.90;99.90;;;;;;5052881;28;20193;-81
2022/08/01 01:29:48;;;;;;;0.40;0.40;;;14.90;99.90;;;;;;5051771;28;20213;-81
2022/08/01 01:32:23;;;;;;;0.50;0.50;;;14.90;99.90;;;;;;5053256;28;20190;-81
2022/08/01 01:34:51;;;;;;;1.23;0.85;;;15.00;99.90;;;;;;5045106;28;20197;-81
2022/08/01 01:37:24;;;;;;;0.40;0.40;;;15.10;99.90;;;;;;5032973;28;20725;-80
2022/08/01 01:39:55;;;;;;;0.40;0.40;;;15.10;99.90;;;;;;5033268;28;20198;-80
2022/08/01 01:42:23;;;;;;;0.50;0.50;;;15.10;99.90;;;;;;5031306;28;20321;-81
2022/08/01 01:44:51;;;;;;;0.40;0.40;;;15.10;99.90;;;;;;5032822;28;20186;-80
2022/08/01 01:47:17;;;;;;;0.57;0.50;;;15.10;99.90;;;;;;5030993;28;20670;-80
2022/08/01 01:49:47;;;;;;;0.82;0.82;;;15.20;99.90;;;;;;5037441;28;20213;-81
2022/08/01 01:52:16;;;;;;;0.60;0.60;;;15.10;99.90;;;;;;5050832;28;20189;-81
2022/08/01 01:54:52;;;;;;;0.75;0.63;;;15.10;99.90;;;;;;5052668;28;20193;-81
2022/08/01 01:57:19;;;;;;;0.38;0.38;;;15.10;99.90;;;;;;5051283;28;20751;-80
2022/08/01 01:59:47;;;;;;;0.45;0.45;;;15.00;99.90;;;;;;5051786;28;20228;-81
2022/08/01 02:02:15;;;;;;;0.63;0.52;;;14.90;99.90;;;;;;5046913;28;20244;-80
2022/08/01 02:04:44;;;;;;;0.40;0.40;;;14.90;99.90;;;;;;5031383;28;20678;-80
2022/08/01 02:07:16;;;;;;;1.05;0.80;;;14.80;99.90;;;;;;5032772;28;20293;-81
2022/08/01 02:09:45;;;;;;;0.60;0.60;;;14.80;99.90;;;;;;5046932;28;20793;-81
2022/08/01 02:12:12;;;;;;;0.40;0.40;;;14.80;99.90;;;;;;5051329;28;20734;-81
2022/08/01 02:14:42;;;;;;;0.40;0.40;;;14.70;99.90;;;;;;5052194;28;20225;-80
2022/08/01 02:17:15;;;;;;;0.40;0.40;;;14.70;99.90;;;;;;5051356;28;20205;-80
2022/08/01 02:19:41;;;;;;;0.50;0.50;;;14.70;99.90;;;;;;5051057;28;20280;-80
2022/08/01 02:22:11;;;;;;;1.15;0.88;;;14.70;99.90;;;;;;5051204;28;20197;-82
2022/08/01 02:25:00;;;;;;;0.65;0.60;;;14.70;99.90;;;;;;5050840;28;20196;-80
2022/08/01 02:27:34;;;;;;;0.50;0.50;;;14.60;99.90;;;;;;5052303;28;20198;-81
2022/08/01 02:30:05;;;;;;;0.43;0.43;;;14.50;99.90;;;;;;5052321;28;20212;-80
2022/08/01 02:32:45;;;;;;;0.40;0.40;;;14.50;99.90;;;;;;5052075;28;20218;-80
2022/08/01 02:35:23;;;;;;;0.40;0.40;;;14.50;99.90;;;;;;5042410;28;20205;-80
2022/08/01 02:37:49;;;;;;;0.50;0.50;;;14.50;99.90;;;;;;5031167;28;20204;-81
2022/08/01 02:40:17;;;;;;;0.50;0.50;;;14.50;99.90;;;;;;5047836;28;20236;-80
2022/08/01 02:42:50;;;;;;;0.60;0.60;;;14.50;99.90;;;;;;5030980;28;20388;-80
2022/08/01 02:45:18;;;;;;;0.75;0.68;;;14.50;99.90;;;;;;5047526;28;20202;-80
2022/08/01 02:47:47;;;;;;;0.57;0.57;;;14.50;99.90;;;;;;5032246;28;20206;-80
2022/08/01 02:50:14;;;;;;;0.50;0.50;;;14.50;99.90;;;;;;5031252;28;20291;-82
2022/08/01 02:52:42;;;;;;;0.40;0.40;;;14.40;99.90;;;;;;5031245;28;20821;-81
2022/08/01 02:55:10;;;;;;;0.40;0.40;;;14.40;99.90;;;;;;5032000;28;20530;-80
2022/08/01 02:57:39;;;;;;;0.52;0.52;;;14.40;99.90;;;;;;5030986;28;20289;-79
2022/08/01 03:00:06;;;;;;;1.75;0.88;;;14.30;99.90;;;;;;5036226;28;20564;-81
2022/08/01 03:02:33;;;;;;;0.57;0.57;;;14.30;99.90;;;;;;5051660;28;20198;-80
2022/08/01 03:05:02;;;;;;;0.70;0.70;;;14.40;99.90;;;;;;5051442;28;20194;-80
2022/08/01 03:07:29;;;;;;;0.47;0.47;;;14.40;99.90;;;;;;5034707;28;20199;-80
2022/08/01 03:09:57;;;;;;;0.50;0.50;;;14.40;99.90;;;;;;5035919;28;20230;-80
2022/08/01 03:12:29;;;;;;;0.38;0.38;;;14.40;99.90;;;;;;5049912;28;20205;-80
2022/08/01 03:14:59;;;;;;;11.60;0.98;;;14.40;99.90;;;;;;5055713;28;20189;-81
2022/08/01 03:17:28;;;;;;;0.50;0.50;;;14.50;99.90;;;;;;5055621;28;20220;-81
2022/08/01 03:19:55;;;;;;;0.60;0.60;;;14.50;99.90;;;;;;5055211;28;20695;-81
2022/08/01 03:22:23;;;;;;;0.40;0.40;;;14.40;99.90;;;;;;5053926;28;20292;-81
2022/08/01 03:24:53;;;;;;;1.00;0.95;;;14.50;99.90;;;;;;5054209;28;20206;-82
2022/08/01 03:27:24;;;;;;;0.43;0.43;;;14.40;99.90;;;;;;5054207;28;20264;-81
2022/08/01 03:29:51;;;;;;;0.50;0.50;;;14.50;99.90;;;;;;5055534;28;20204;-81
2022/08/01 03:32:19;;;;;;;0.55;0.50;;;14.50;99.90;;;;;;5054188;28;20193;-81
2022/08/01 03:34:46;;;;;;;0.70;0.70;;;14.40;99.90;;;;;;5053084;28;20217;-81
2022/08/01 03:37:26;;;;;;;0.90;0.80;;;14.40;99.90;;;;;;5055226;28;20190;-80
2022/08/01 03:40:05;;;;;;;0.68;0.57;;;14.40;99.90;;;;;;5053784;28;20201;-81
2022/08/01 03:42:34;;;;;;;0.50;0.50;;;14.30;99.90;;;;;;5054177;28;20205;-80
2022/08/01 03:45:25;;;;;;;0.45;0.45;;;14.20;99.90;;;;;;5053988;28;20691;-80
2022/08/01 03:48:02;;;;;;;0.47;0.47;;;14.20;99.90;;;;;;5053024;28;20286;-80
2022/08/01 03:50:30;;;;;;;3.30;0.50;;;14.20;99.90;;;;;;5053941;28;20204;-81
2022/08/01 03:53:00;;;;;;;0.50;0.50;;;14.30;99.90;;;;;;5055079;28;20182;-81
2022/08/01 03:55:27;;;;;;;0.57;0.57;;;14.30;99.90;;;;;;5054733;28;20264;-81
2022/08/01 03:57:53;;;;;;;0.47;0.47;;;14.30;99.90;;;;;;5053679;28;20288;-81
2022/08/01 04:00:20;;;;;;;0.55;0.55;;;14.30;99.90;;;;;;5054622;28;20668;-81
2022/08/01 04:02:47;;;;;;;0.45;0.45;;;14.30;99.90;;;;;;5033689;28;20649;-81
2022/08/01 04:05:14;;;;;;;0.60;0.60;;;14.30;99.90;;;;;;5033687;28;20198;-81
2022/08/01 04:07:42;;;;;;;0.65;0.65;;;14.30;99.90;;;;;;5039673;28;20205;-81
2022/08/01 04:10:08;;;;;;;0.40;0.40;;;14.30;99.90;;;;;;5052986;28;20698;-80
2022/08/01 04:12:34;;;;;;;0.40;0.40;;;14.30;99.90;;;;;;5054055;28;20189;-81
2022/08/01 04:15:00;;;;;;;0.85;0.85;;;14.30;99.90;;;;;;5053153;28;20200;-80
2022/08/01 04:17:25;;;;;;;0.43;0.43;;;14.30;99.90;;;;;;5054608;28;20281;-80
2022/08/01 04:19:51;;;;;;;0.50;0.50;;;14.30;99.90;;;;;;5054667;28;20558;-81
2022/08/01 04:22:17;;;;;;;0.70;0.70;;;14.30;99.90;;;;;;5053332;28;20201;-80
2022/08/01 04:24:50;;;;;;;0.50;0.50;;;14.30;99.90;;;;;;5053596;28;20208;-81
2022/08/01 04:27:22;;;;;;;0.43;0.43;;;14.30;99.90;;;;;;5052384;28;20255;-80
2022/08/01 04:29:51;;;;;;;1.40;0.85;;;14.40;99.90;;;;;;5052056;28;20213;-80
2022/08/01 04:32:21;;;;;;;1.50;0.77;;;14.40;99.90;;;;;;5054544;28;20200;-80
2022/08/01 04:34:49;;;;;;;0.30;0.30;;;14.40;99.90;;;;;;5048074;28;20190;-80
2022/08/01 04:37:16;;;;;;;0.60;0.60;;;14.40;99.90;;;;;;5033076;28;20202;-81
2022/08/01 04:39:44;;;;;;;0.65;0.60;;;14.40;99.90;;;;;;5053113;28;20201;-81
2022/08/01 04:42:11;;;;;;;0.57;0.57;;;14.40;99.90;;;;;;5053963;28;20221;-80
2022/08/01 04:44:37;;;;;;;0.55;0.55;;;14.40;99.90;;;;;;5052671;28;20205;-80
2022/08/01 04:47:04;;;;;;;0.57;0.52;;;14.40;99.90;;;;;;5053396;28;20200;-80
2022/08/01 04:49:37;;;;;;;1.17;1.02;;;14.40;99.90;;;;;;5052336;28;20216;-79
2022/08/01 04:52:05;;;;;;;1.38;0.80;;;14.40;99.90;;;;;;5053904;28;20259;-80
2022/08/01 04:54:36;;;;;;;0.50;0.50;;;14.40;99.90;;;;;;5053445;28;20268;-80
2022/08/01 04:57:06;;;;;;;0.40;0.40;;;14.50;99.90;;;;;;5053476;28;20700;-81
2022/08/01 04:59:41;;;;;;;0.40;0.40;;;14.60;99.90;;;;;;5052367;28;20204;-82
2022/08/01 05:02:08;;;;;;;0.38;0.38;;;14.60;99.90;;;;;;5052278;28;20201;-79
2022/08/01 05:04:34;;;;;;;0.93;0.93;;;14.70;99.90;;;;;;5053132;28;20220;-81
2022/08/01 05:07:00;;;;;;;0.60;0.60;;;14.70;99.90;;;;;;5052405;28;20213;-80
2022/08/01 05:09:26;;;;;;;0.47;0.47;;;14.70;99.90;;;;;;5052159;28;20288;-79
2022/08/01 05:11:52;;;;;;;0.55;0.55;;;14.70;99.90;;;;;;5051938;28;20193;-80
2022/08/01 05:14:18;;;;;;;2.47;0.50;;;14.60;99.90;;;;;;5051315;28;20202;-79
2022/08/01 05:16:45;;;;;;;0.55;0.55;;;14.60;99.90;;;;;;5052447;28;20201;-79
2022/08/01 05:19:11;;;;;;;0.30;0.30;;;14.70;99.90;;;;;;5053362;28;20263;-79
2022/08/01 05:21:37;;;;;;;0.47;0.47;;;14.70;99.90;;;;;;5051681;28;21244;-79
2022/08/01 05:24:04;;;;;;;0.52;0.43;;;14.70;99.90;;;;;;5051640;28;20224;-80
2022/08/01 05:26:30;;;;;;;1.65;0.82;;;14.80;99.90;;;;;;5052893;28;20221;-79
2022/08/01 05:28:55;;;;;;;0.63;0.57;;;14.80;99.90;;;;;;5053059;28;20604;-79
2022/08/01 05:31:21;;;;;;;0.52;0.52;;;14.80;99.90;;;;;;5051531;28;20603;-79
2022/08/01 05:33:47;;;;;;;0.50;0.50;;;14.80;99.90;;;;;;5051601;28;20198;-79
2022/08/01 05:36:13;;;;;;;0.82;0.77;;;14.90;99.90;;;;;;5051161;28;20202;-79
2022/08/01 05:38:38;;;;;;;0.40;0.40;;;14.90;99.90;;;;;;5052573;28;20189;-78
2022/08/01 05:41:04;;;;;;;0.55;0.55;;;14.90;99.90;;;;;;5051088;28;20695;-78
2022/08/01 05:43:30;;;;;;;0.50;0.50;;;15.00;99.90;;;;;;5050847;28;20237;-78
2022/08/01 05:45:58;;;;;;;0.40;0.40;;;15.10;99.90;;;;;;5050957;28;20284;-78
2022/08/01 05:48:24;;;;;;;0.45;0.45;;;15.20;99.90;;;;;;5050513;28;20541;-78
2022/08/01 05:50:50;;;;;;;0.38;0.38;;;15.20;99.90;;;;;;5051113;28;20258;-78
2022/08/01 05:53:16;;;;;;;0.40;0.40;;;15.30;99.90;;;;;;5047998;28;20219;-79
2022/08/01 05:55:42;;;;;;;9.82;1.05;;;15.30;99.90;;;;;;5048052;28;20198;-78
2022/08/01 05:58:08;;;;;;;1.13;0.57;;;15.40;99.90;;;;;;5031440;28;20217;-78
2022/08/01 06:00:34;;;;;;;0.47;0.47;;;15.50;99.90;;;;;;5042115;28;20277;-80
2022/08/01 06:02:59;;;;;;;0.40;0.40;;;15.50;99.90;;;;;;5053100;28;20300;-79
2022/08/01 06:05:25;;;;;;;0.50;0.50;;;15.60;99.90;;;;;;5051161;28;20207;-80
2022/08/01 06:07:51;;;;;;;0.40;0.40;;;15.60;99.90;;;;;;5052796;28;20225;-80
2022/08/01 06:10:16;;;;;;;0.30;0.30;;;15.80;99.90;;;;;;5052587;28;20202;-79
2022/08/01 06:12:42;;;;;;;0.38;0.38;;;15.80;99.90;;;;;;5051056;28;20189;-79
2022/08/01 06:15:09;;;;;;;0.95;0.95;;;15.90;99.90;;;;;;5052353;28;20204;-79
2022/08/01 06:17:35;;;;;;;0.40;0.40;;;16.00;99.90;;;;;;5052516;28;20882;-79
2022/08/01 06:20:01;;;;;;;0.30;0.30;;;16.10;99.90;;;;;;5050498;28;20201;-79
2022/08/01 06:22:26;;;;;;;0.70;0.70;;;16.10;99.90;;;;;;5051636;28;20538;-79
2022/08/01 06:24:52;;;;;;;0.50;0.50;;;16.10;99.90;;;;;;5052351;28;20196;-79
2022/08/01 06:27:18;;;;;;;0.45;0.45;;;16.10;99.90;;;;;;5050781;28;20197;-79
2022/08/01 06:29:44;;;;;;;0.88;0.85;;;16.10;99.90;;;;;;5051269;28;20256;-79
2022/08/01 06:32:10;;;;;;;0.52;0.52;;;16.10;99.90;;;;;;5050402;28;20695;-79
2022/08/01 06:34:36;;;;;;;0.25;0.25;;;16.10;99.90;;;;;;5051225;28;20189;-79
2022/08/01 06:37:01;;;;;;;0.50;0.50;;;16.10;99.90;;;;;;5067584;28;20201;-80
2022/08/01 06:39:27;;;;;;;0.57;0.57;;;16.10;99.90;;;;;;5067654;28;20208;-79
2022/08/01 06:41:53;;;;;;;0.50;0.50;;;16.20;99.90;;;;;;5052014;28;20200;-79
2022/08/01 06:44:19;;;;;;;0.52;0.52;;;16.20;99.90;;;;;;5067093;28;20235;-80
2022/08/01 06:46:44;;;;;;;0.55;0.55;;;16.30;99.90;;;;;;5067551;28;20208;-79
2022/08/01 06:49:10;;;;;;;0.70;0.70;;;16.30;99.90;;;;;;5067225;28;20224;-80
2022/08/01 06:51:36;;;;;;;0.73;0.70;;;16.30;99.90;;;;;;5051962;28;20215;-79
2022/08/01 06:54:02;;;;;;;0.47;0.47;;;16.40;99.90;;;;;;5049898;28;20204;-80
2022/08/01 06:56:27;;;;;;;0.60;0.60;;;16.40;99.90;;;;;;5051884;28;20619;-80
2022/08/01 06:58:56;;;;;;;1.45;0.60;;;16.40;99.90;;;;;;5052006;28;20200;-80
2022/08/01 07:01:21;;;;;;;0.50;0.50;;;16.50;99.90;;;;;;5050343;28;20251;-80
2022/08/01 07:03:47;;;;;;;0.73;0.63;;;16.60;99.90;;;;;;5052023;28;20209;-80
2022/08/01 07:06:14;;;;;;;0.30;0.30;;;16.70;99.90;;;;;;5051791;28;20197;-80
2022/08/01 07:08:43;;;;;;;0.45;0.45;;;16.80;99.90;;;;;;5051806;28;20208;-79
2022/08/01 07:11:08;;;;;;;0.60;0.60;;;17.00;99.90;;;;;;5051869;28;20235;-79
2022/08/01 07:13:34;;;;;;;0.52;0.45;;;17.20;99.90;;;;;;5050184;28;20494;-80
2022/08/01 07:16:00;;;;;;;0.30;0.30;;;17.50;99.90;;;;;;5038456;28;20285;-80
2022/08/01 07:18:25;;;;;;;0.40;0.40;;;17.70;99.90;;;;;;5031473;28;20197;-80
2022/08/01 07:20:51;;;;;;;0.50;0.50;;;17.90;99.90;;;;;;5031749;28;20191;-80
2022/08/01 07:23:17;;;;;;;0.40;0.40;;;18.00;99.90;;;;;;5045832;28;20201;-79
2022/08/01 07:25:43;;;;;;;0.60;0.60;;;18.00;99.90;;;;;;5070314;28;20556;-79
2022/08/01 07:28:09;;;;;;;0.52;0.52;;;18.10;99.90;;;;;;5055838;28;20210;-80
2022/08/01 07:30:35;;;;;;;0.30;0.30;;;18.10;99.90;;;;;;5050053;28;20209;-80
2022/08/01 07:33:01;;;;;;;0.90;0.77;;;18.00;99.90;;;;;;5050549;28;20200;-80
2022/08/01 07:35:27;;;;;;;0.43;0.43;;;18.10;99.90;;;;;;5051254;28;20198;-80
2022/08/01 07:37:55;;;;;;;1.20;0.60;;;18.40;99.90;;;;;;5051435;28;20194;-80
2022/08/01 07:40:21;;;;;;;1.40;0.93;;;18.80;99.90;;;;;;5067858;28;20243;-80
2022/08/01 07:42:47;;;;;;;0.95;0.93;;;19.20;99.90;;;;;;5051520;28;20229;-80
2022/08/01 07:45:13;;;;;;;0.43;0.43;;;19.60;99.90;;;;;;5068696;28;20212;-80
2022/08/01 07:47:39;;;;;;;0.88;0.73;;;19.70;99.90;;;;;;5054578;28;20205;-80
2022/08/01 07:50:05;;;;;;;0.45;0.45;;;19.50;99.90;;;;;;5053887;28;20213;-80
2022/08/01 07:52:31;;;;;;;0.47;0.47;;;19.30;99.90;;;;;;5053820;28;20220;-80
2022/08/01 07:54:58;;;;;;;0.47;0.47;;;19.20;99.90;;;;;;5053205;28;20284;-80
2022/08/01 07:57:24;;;;;;;0.45;0.40;;;19.20;99.90;;;;;;5053156;28;20190;-79
2022/08/01 07:59:51;;;;;;;0.45;0.45;;;19.30;99.90;;;;;;5053443;28;20613;-80
2022/08/01 08:02:17;;;;;;;0.57;0.57;;;19.20;99.90;;;;;;5054247;28;20251;-80
2022/08/01 08:04:42;;;;;;;0.40;0.40;;;19.00;99.90;;;;;;5052932;28;20300;-80
2022/08/01 08:07:08;;;;;;;0.43;0.43;;;19.00;99.90;;;;;;5053264;28;20208;-80
2022/08/01 08:09:34;;;;;;;0.65;0.60;;;18.80;99.90;;;;;;5053045;28;20209;-79
2022/08/01 08:11:59;;;;;;;3.35;0.50;;;18.60;99.90;;;;;;5054275;28;20208;-80
2022/08/01 08:14:25;;;;;;;0.40;0.40;;;18.50;99.90;;;;;;5052894;28;20384;-80
2022/08/01 08:16:51;;;;;;;0.65;0.65;;;18.40;99.90;;;;;;5053192;28;20563;-80
2022/08/01 08:19:18;;;;;;;0.40;0.40;;;18.50;99.90;;;;;;5054408;28;20531;-80
2022/08/01 08:21:44;;;;;;;0.30;0.30;;;18.60;99.90;;;;;;5053223;28;20206;-80
2022/08/01 08:24:19;;;;;;;0.50;0.50;;;18.80;99.90;;;;;;5052712;28;20201;-80
2022/08/01 08:26:49;;;;;;;1.00;0.57;;;19.00;99.90;;;;;;5053025;28;20201;-80
2022/08/01 08:29:15;;;;;;;0.20;0.20;;;19.20;99.90;;;;;;5054157;28;20186;-80
2022/08/01 08:31:41;;;;;;;0.40;0.40;;;19.40;99.90;;;;;;5052613;28;20239;-80
2022/08/01 08:34:06;;;;;;;0.65;0.65;;;19.80;99.90;;;;;;5053701;28;20186;-80
2022/08/01 08:36:32;;;;;;;0.57;0.50;;;20.10;99.90;;;;;;5068920;28;20194;-80
2022/08/01 08:39:02;;;;;;;0.43;0.43;;;20.30;99.90;;;;;;5068677;28;20714;-80
2022/08/01 08:41:32;;;;;;;0.98;0.50;;;20.60;99.90;;;;;;5068699;28;20205;-81
2022/08/01 08:43:59;;;;;;;0.22;0.22;;;20.90;99.90;;;;;;5053027;28;20244;-80
2022/08/01 08:46:27;;;;;;;0.70;0.70;;;21.50;99.90;;;;;;5053640;28;20229;-80
2022/08/01 08:48:54;;;;;;;0.28;0.28;;;21.60;99.90;;;;;;5048940;28;20248;-80
2022/08/01 08:51:20;;;;;;;0.63;0.50;;;21.40;99.90;;;;;;5033491;28;20191;-81
2022/08/01 08:53:47;;;;;;;0.20;0.20;;;21.60;99.90;;;;;;5032614;28;20255;-80
2022/08/01 08:56:15;;;;;;;0.20;0.20;;;21.80;99.90;;;;;;5033255;28;20221;-81
2022/08/01 08:58:44;;;;;;;1.27;0.30;;;21.80;99.90;;;;;;5033501;28;20658;-80
2022/08/01 09:01:12;;;;;;;0.85;0.40;;;22.00;99.90;;;;;;5032432;28;20198;-80
2022/08/01 09:03:39;;;;;;;0.50;0.45;;;22.40;99.90;;;;;;5033239;28;20205;-80
2022/08/01 09:06:06;;;;;;;0.50;0.35;;;22.40;99.90;;;;;;5032119;28;20304;-81
2022/08/01 09:08:33;;;;;;;0.28;0.28;;;21.90;99.90;;;;;;5033363;28;20186;-80
2022/08/01 09:10:59;;;;;;;0.47;0.47;;;21.70;99.90;;;;;;5033331;28;20206;-81
2022/08/01 09:13:24;;;;;;;0.30;0.30;;;21.60;99.90;;;;;;5031834;28;20202;-80
2022/08/01 09:15:54;;;;;;;0.30;0.30;;;21.70;99.90;;;;;;5033386;28;20190;-80
2022/08/01 09:18:36;;;;;;;0.20;0.20;;;21.90;99.90;;;;;;5031217;28;20666;-80
2022/08/01 09:21:10;;;;;;;0.28;0.28;;;21.80;99.90;;;;;;5048589;28;20676;-80
2022/08/01 09:23:39;;;;;;;0.43;0.43;;;21.60;99.90;;;;;;5052486;28;20665;-81
2022/08/01 09:26:06;;;;;;;0.70;0.52;;;21.30;99.90;;;;;;5052314;28;20558;-81
2022/08/01 09:28:33;;;;;;;0.30;0.30;;;21.20;99.90;;;;;;5052848;28;20225;-81
2022/08/01 09:31:06;;;;;;;0.30;0.30;;;21.10;99.90;;;;;;5051678;28;20209;-81
2022/08/01 09:33:50;;;;;;;0.17;0.17;;;21.10;99.90;;;;;;5052533;28;20189;-81
2022/08/01 09:36:17;;;;;;;0.30;0.30;;;21.20;99.90;;;;;;5051596;28;20194;-81
2022/08/01 09:38:43;;;;;;;0.25;0.22;;;21.20;99.90;;;;;;5052724;28;20189;-81
2022/08/01 09:41:09;;;;;;;0.50;0.50;;;21.30;99.90;;;;;;5051390;28;20683;-81
2022/08/01 09:43:34;;;;;;;0.22;0.22;;;21.30;99.90;;;;;;5051282;28;20229;-81
2022/08/01 09:46:10;;;;;;;0.30;0.30;;;21.30;99.90;;;;;;5052503;28;20197;-81
2022/08/01 09:48:36;;;;;;;0.55;0.40;;;21.40;99.90;;;;;;5051298;28;20550;-81
2022/08/01 09:51:03;;;;;;;0.38;0.38;;;21.30;99.90;;;;;;5052699;28;20565;-81
2022/08/01 09:53:46;;;;;;;0.30;0.30;;;21.30;99.90;;;;;;5052092;28;20196;-80
2022/08/01 09:56:12;;;;;;;0.32;0.32;;;21.10;99.90;;;;;;5051227;28;20189;-80
2022/08/01 09:58:59;;;;;;;0.57;0.50;;;21.10;99.90;;;;;;5052221;28;20247;-80
2022/08/01 10:01:25;;;;;;;0.30;0.30;;;21.20;99.90;;;;;;5052343;28;20190;-81
2022/08/01 10:04:24;;;;;;;0.20;0.20;;;21.30;99.90;;;;;;5052113;28;20193;-80
2022/08/01 10:06:53;;;;;;;0.35;0.35;;;21.50;99.90;;;;;;5040027;28;20205;-80
2022/08/01 10:09:30;;;;;;;0.40;0.40;;;21.50;99.90;;;;;;5050152;28;20581;-80
2022/08/01 10:11:56;;;;;;;0.20;0.20;;;22.00;99.90;;;;;;5050922;28;20189;-80
2022/08/01 10:14:24;;;;;;;0.20;0.20;;;22.10;99.90;;;;;;5050857;28;20200;-81
2022/08/01 10:16:53;;;;;;;0.32;0.32;;;22.00;99.90;;;;;;5052164;28;20676;-81
2022/08/01 10:19:22;;;;;;;0.30;0.30;;;21.90;99.90;;;;;;5051916;28;20216;-81
2022/08/01 10:21:51;;;;;;;0.10;0.10;;;22.30;99.90;;;;;;5051791;28;20189;-80
2022/08/01 10:24:19;;;;;;;0.30;0.30;;;23.20;99.90;;;;;;5051932;28;20197;-80
2022/08/01 10:26:48;;;;;;;0.13;0.13;;;24.10;99.90;;;;;;5051954;28;20723;-80
2022/08/01 10:29:18;;;;;;;0.35;0.22;;;24.90;99.90;;;;;;5050796;28;20202;-79
2022/08/01 10:31:45;;;;;;;0.30;0.30;;;25.10;99.90;;;;;;5050155;28;20225;-80
2022/08/01 10:34:15;;;;;;;0.25;0.20;;;25.20;99.90;;;;;;5051106;28;20186;-81
2022/08/01 10:36:42;;;;;;;0.40;0.22;;;25.30;99.90;;;;;;5050746;28;20223;-81
2022/08/01 10:39:11;;;;;;;0.38;0.38;;;24.90;99.90;;;;;;5051847;28;20214;-81
2022/08/01 10:41:38;;;;;;;0.77;0.30;;;24.20;99.90;;;;;;5051948;28;20195;-81
2022/08/01 10:44:06;;;;;;;0.22;0.22;;;23.80;99.90;;;;;;5050380;28;20237;-81
2022/08/01 10:46:34;;;;;;;0.20;0.20;;;23.70;99.90;;;;;;5050426;28;20198;-81
2022/08/01 10:49:15;;;;;;;0.20;0.20;;;23.40;99.90;;;;;;5050529;28;20209;-80
2022/08/01 10:51:41;;;;;;;0.47;0.32;;;23.10;99.90;;;;;;5051456;28;20205;-81
2022/08/01 10:54:09;;;;;;;0.45;0.30;;;22.80;99.90;;;;;;5051760;28;20220;-80
2022/08/01 10:56:46;;;;;;;0.10;0.10;;;22.60;99.90;;;;;;5050304;28;20208;-80
2022/08/01 10:59:21;;;;;;;0.10;0.10;;;22.40;99.90;;;;;;5051666;28;20186;-80
2022/08/01 11:02:01;;;;;;;0.20;0.20;;;22.10;99.90;;;;;;5050354;28;20288;-80
2022/08/01 11:04:55;;;;;;;0.10;0.10;;;21.90;99.90;;;;;;5049708;28;20205;-80
2022/08/01 11:07:24;;;;;;;0.30;0.30;;;21.70;99.90;;;;;;5050339;28;20201;-80
2022/08/01 11:10:04;;;;;;;0.25;0.25;;;21.40;99.90;;;;;;5051354;28;20206;-79
2022/08/01 11:12:42;;;;;;;0.45;0.45;;;21.00;99.90;;;;;;5049867;28;20304;-80
2022/08/01 11:15:11;;;;;;;0.82;0.35;;;20.70;99.90;;;;;;5050339;28;20680;-80
2022/08/01 11:17:51;;;;;;;0.20;0.20;;;20.50;99.90;;;;;;5050142;28;20198;-80
2022/08/01 11:20:32;;;;;;;0.20;0.20;;;20.30;99.90;;;;;;5053222;28;20284;-79
2022/08/01 11:23:04;;;;;;;0.40;0.40;;;20.30;99.90;;;;;;5054941;28;20228;-80
2022/08/01 11:25:36;;;;;;;0.30;0.30;;;20.20;99.90;;;;;;5053645;28;20201;-80
2022/08/01 11:28:17;;;;;;;1.38;0.77;;;20.20;99.90;;;;;;5053970;28;20262;-78
2022/08/01 11:30:51;;;;;;;0.20;0.20;;;20.50;99.90;;;;;;5053633;28;20209;-79
2022/08/01 11:33:38;;;;;;;0.25;0.25;;;20.80;99.90;;;;;;5055252;28;20185;-79
2022/08/01 11:36:10;;;;;;;0.70;0.30;;;20.90;99.90;;;;;;5053285;28;20197;-80
2022/08/01 11:38:44;;;;;;;0.20;0.20;;;21.00;99.90;;;;;;5054631;28;20193;-80
2022/08/01 11:41:33;;;;;;;0.35;0.35;;;20.90;99.90;;;;;;5054580;28;20194;-80
2022/08/01 11:44:00;;;;;;;0.20;0.20;;;20.90;99.90;;;;;;5052954;28;20236;-80
2022/08/01 11:46:53;;;;;;;2.08;0.85;;;21.00;99.90;;;;;;5053233;28;20201;-80
2022/08/01 11:49:28;;;;;;;0.35;0.35;;;21.00;99.90;;;;;;5054962;28;20198;-81
2022/08/01 11:52:01;;;;;;;0.10;0.10;;;21.20;99.90;;;;;;5054827;28;20672;-81
2022/08/01 11:54:51;;;;;;;1.42;0.75;;;21.30;99.90;;;;;;5053318;28;20568;-80
2022/08/01 11:57:20;;;;;;;0.20;0.20;;;21.30;99.90;;;;;;5069913;28;20216;-80
2022/08/01 11:59:48;;;;;;;0.40;0.40;;;21.20;99.90;;;;;;5054711;28;20283;-80
2022/08/01 12:02:31;;;;;;;0.57;0.57;;;21.40;99.90;;;;;;5054444;28;20215;-79
2022/08/01 12:05:04;;;;;;;0.30;0.30;;;21.90;99.90;;;;;;5054895;28;20275;-80
2022/08/01 12:07:32;;;;;;;0.43;0.40;;;22.70;99.90;;;;;;5052766;28;20688;-81
2022/08/01 12:10:00;;;;;;;0.65;0.47;;;24.00;99.90;;;;;;5053896;28;20207;-80
2022/08/01 12:12:26;;;;;;;0.20;0.20;;;24.50;99.90;;;;;;5053750;28;20193;-81
2022/08/01 12:14:54;;;;;;;0.10;0.10;;;25.10;99.90;;;;;;5053247;28;20201;-81
2022/08/01 12:17:31;;;;;;;0.20;0.20;;;25.90;99.90;;;;;;5054002;28;20201;-80
2022/08/01 12:19:57;;;;;;;0.20;0.20;;;26.50;99.90;;;;;;5053880;28;20631;-81
2022/08/01 12:22:24;;;;;;;0.20;0.20;;;27.30;99.90;;;;;;5053908;28;20221;-80
2022/08/01 12:24:51;;;;;;;0.30;0.30;;;27.40;99.90;;;;;;5054120;28;20193;-80
2022/08/01 12:27:28;;;;;;;0.47;0.38;;;27.20;99.90;;;;;;5053736;28;20198;-80
2022/08/01 12:29:54;;;;;;;0.65;0.32;;;27.60;99.90;;;;;;5053776;28;20258;-80
2022/08/01 12:32:21;;;;;;;0.25;0.25;;;27.90;99.90;;;;;;5051386;28;20668;-81
2022/08/01 12:34:47;;;;;;;0.10;0.10;;;28.20;99.90;;;;;;5051913;28;20649;-80
2022/08/01 12:37:13;;;;;;;0.05;0.05;;;28.50;99.90;;;;;;5069260;28;20190;-81
2022/08/01 12:39:39;;;;;;;0.10;0.10;;;28.70;99.90;;;;;;5068846;28;20216;-80
2022/08/01 12:42:10;;;;;;;0.10;0.10;;;28.50;99.90;;;;;;5068854;28;20630;-80
2022/08/01 12:44:36;;;;;;;0.10;0.10;;;27.60;99.90;;;;;;5068660;28;20209;-81
2022/08/01 12:47:05;;;;;;;0.32;0.32;;;25.30;99.90;;;;;;5053433;28;20682;-81
2022/08/01 12:49:32;;;;;;;0.45;0.32;;;23.70;99.90;;;;;;5068844;28;20300;-81
2022/08/01 12:51:58;;;;;;;0.20;0.20;;;22.60;99.90;;;;;;5053486;28;20559;-80
2022/08/01 12:54:25;;;;;;;0.13;0.13;;;21.30;99.90;;;;;;5068908;28;20574;-80
2022/08/01 12:56:53;;;;;;;0.85;0.55;;;20.20;99.90;;;;;;5053417;28;20691;-80
2022/08/01 12:59:27;;;;;;;0.30;0.30;;;18.70;99.90;;;;;;5053815;28;20201;-80